sensor_id;sensor_type;location;lat;lon;timestamp;pressure;altitude;pressure_sealevel;temperature
63009;BMP280;49099;28.428;-16.488;2022-11-15T00:01:22;98862.41;;;22.97
63009;BMP280;49099;28.428;-16.488;2022-11-15T00:03:52;98866.50;;;22.87
63009;BMP280;49099;28.428;-16.488;2022-11-15T00:06:19;98862.38;;;22.81
63009;BMP280;49099;28.428;-16.488;2022-11-15T00:08:46;98859.19;;;22.77
63009;BMP280;49099;28.428;-16.488;2022-11-15T00:11:14;98862.84;;;22.74
63009;BMP280;49099;28.428;-16.488;2022-11-15T00:13:41;98864.56;;;22.71
63009;BMP280;49099;28.428;-16.488;2022-11-15T00:16:08;98862.09;;;22.73
63009;BMP280;49099;28.428;-16.488;2022-11-15T00:18:35;98857.50;;;22.74
63009;BMP280;49099;28.428;-16.488;2022-11-15T00:21:05;98854.31;;;22.70
63009;BMP280;49099;28.428;-16.488;2022-11-15T00:23:33;98857.97;;;22.67
63009;BMP280;49099;28.428;-16.488;2022-11-15T00:26:00;98861.63;;;22.69
63009;BMP280;49099;28.428;-16.488;2022-11-15T00:28:28;98850.91;;;22.69
63009;BMP280;49099;28.428;-16.488;2022-11-15T00:31:00;98849.47;;;22.68
63009;BMP280;49099;28.428;-16.488;2022-11-15T00:33:28;98856.00;;;22.62
63009;BMP280;49099;28.428;-16.488;2022-11-15T00:36:07;98844.34;;;22.65
63009;BMP280;49099;28.428;-16.488;2022-11-15T00:38:37;98848.47;;;22.66
63009;BMP280;49099;28.428;-16.488;2022-11-15T00:41:06;98856.00;;;22.62
63009;BMP280;49099;28.428;-16.488;2022-11-15T00:43:35;98861.34;;;22.62
63009;BMP280;49099;28.428;-16.488;2022-11-15T00:46:03;98866.00;;;22.61
63009;BMP280;49099;28.428;-16.488;2022-11-15T00:48:30;98849.22;;;22.61
63009;BMP280;49099;28.428;-16.488;2022-11-15T00:50:58;98856.25;;;22.58
63009;BMP280;49099;28.428;-16.488;2022-11-15T00:53:25;98862.56;;;22.55
63009;BMP280;49099;28.428;-16.488;2022-11-15T00:55:52;98856.50;;;22.55
63009;BMP280;49099;28.428;-16.488;2022-11-15T00:58:19;98855.97;;;22.50
63009;BMP280;49099;28.428;-16.488;2022-11-15T01:00:46;98854.75;;;22.46
63009;BMP280;49099;28.428;-16.488;2022-11-15T01:03:13;98859.38;;;22.45
63009;BMP280;49099;28.428;-16.488;2022-11-15T01:05:40;98857.94;;;22.44
63009;BMP280;49099;28.428;-16.488;2022-11-15T01:08:16;98854.03;;;22.45
63009;BMP280;49099;28.428;-16.488;2022-11-15T01:10:44;98857.94;;;22.44
63009;BMP280;49099;28.428;-16.488;2022-11-15T01:13:11;98858.66;;;22.45
63009;BMP280;49099;28.428;-16.488;2022-11-15T01:15:41;98861.78;;;22.43
63009;BMP280;49099;28.428;-16.488;2022-11-15T01:18:09;98864.72;;;22.45
63009;BMP280;49099;28.428;-16.488;2022-11-15T01:20:40;98854.75;;;22.46
63009;BMP280;49099;28.428;-16.488;2022-11-15T01:23:08;98850.88;;;22.47
63009;BMP280;49099;28.428;-16.488;2022-11-15T01:25:35;98851.59;;;22.48
63009;BMP280;49099;28.428;-16.488;2022-11-15T01:28:03;98854.03;;;22.45
63009;BMP280;49099;28.428;-16.488;2022-11-15T01:30:30;98847.22;;;22.50
63009;BMP280;49099;28.428;-16.488;2022-11-15T01:32:57;98848.19;;;22.52
63009;BMP280;49099;28.428;-16.488;2022-11-15T01:35:24;98838.97;;;22.54
63009;BMP280;49099;28.428;-16.488;2022-11-15T01:37:51;98838.47;;;22.50
63009;BMP280;49099;28.428;-16.488;2022-11-15T01:40:18;98837.97;;;22.45
63009;BMP280;49099;28.428;-16.488;2022-11-15T01:42:45;98844.06;;;22.46
63009;BMP280;49099;28.428;-16.488;2022-11-15T01:45:15;98833.13;;;22.50
63009;BMP280;49099;28.428;-16.488;2022-11-15T01:47:51;98826.28;;;22.48
63009;BMP280;49099;28.428;-16.488;2022-11-15T01:50:26;98829.94;;;22.45
63009;BMP280;49099;28.428;-16.488;2022-11-15T01:52:54;98824.31;;;22.43
63009;BMP280;49099;28.428;-16.488;2022-11-15T01:55:25;98828.00;;;22.40
63009;BMP280;49099;28.428;-16.488;2022-11-15T01:57:57;98829.91;;;22.40
63009;BMP280;49099;28.428;-16.488;2022-11-15T02:00:25;98825.06;;;22.44
63009;BMP280;49099;28.428;-16.488;2022-11-15T02:02:52;98831.16;;;22.44
63009;BMP280;49099;28.428;-16.488;2022-11-15T02:05:20;98813.63;;;22.43
63009;BMP280;49099;28.428;-16.488;2022-11-15T02:07:48;98823.81;;;22.39
63009;BMP280;49099;28.428;-16.488;2022-11-15T02:10:20;98819.97;;;22.40
63009;BMP280;49099;28.428;-16.488;2022-11-15T02:12:48;98814.84;;;22.42
63009;BMP280;49099;28.428;-16.488;2022-11-15T02:15:16;98812.16;;;22.42
63009;BMP280;49099;28.428;-16.488;2022-11-15T02:21:18;98817.06;;;22.38
63009;BMP280;49099;28.428;-16.488;2022-11-15T02:29:42;98805.06;;;22.23
63009;BMP280;49099;28.428;-16.488;2022-11-15T02:32:36;98813.56;;;22.21
63009;BMP280;49099;28.428;-16.488;2022-11-15T02:35:37;98810.41;;;22.28
63009;BMP280;49099;28.428;-16.488;2022-11-15T02:40:58;98818.47;;;22.39
63009;BMP280;49099;28.428;-16.488;2022-11-15T02:43:47;98818.47;;;22.39
63009;BMP280;49099;28.428;-16.488;2022-11-15T02:46:35;98817.72;;;22.39
63009;BMP280;49099;28.428;-16.488;2022-11-15T02:49:27;98821.66;;;22.38
63009;BMP280;49099;28.428;-16.488;2022-11-15T02:51:55;98825.06;;;22.38
63009;BMP280;49099;28.428;-16.488;2022-11-15T02:54:25;98813.38;;;22.41
63009;BMP280;49099;28.428;-16.488;2022-11-15T02:56:55;98813.88;;;22.45
63009;BMP280;49099;28.428;-16.488;2022-11-15T03:07:32;98793.91;;;22.41
63009;BMP280;49099;28.428;-16.488;2022-11-15T03:12:46;98792.66;;;22.36
63009;BMP280;49099;28.428;-16.488;2022-11-15T03:15:32;98790.28;;;22.38
63009;BMP280;49099;28.428;-16.488;2022-11-15T03:18:15;98785.63;;;22.39
63009;BMP280;49099;28.428;-16.488;2022-11-15T03:20:44;98784.19;;;22.38
63009;BMP280;49099;28.428;-16.488;2022-11-15T03:23:13;98766.66;;;22.37
63009;BMP280;49099;28.428;-16.488;2022-11-15T03:25:47;98776.63;;;22.36
63009;BMP280;49099;28.428;-16.488;2022-11-15T03:28:21;98762.78;;;22.38
63009;BMP280;49099;28.428;-16.488;2022-11-15T03:30:51;98766.88;;;22.39
63009;BMP280;49099;28.428;-16.488;2022-11-15T03:33:21;98753.75;;;22.41
63009;BMP280;49099;28.428;-16.488;2022-11-15T03:35:49;98756.91;;;22.39
63009;BMP280;49099;28.428;-16.488;2022-11-15T03:38:25;98755.50;;;22.38
63009;BMP280;49099;28.428;-16.488;2022-11-15T03:41:00;98752.81;;;22.38
63009;BMP280;49099;28.428;-16.488;2022-11-15T03:46:23;98743.03;;;22.35
63009;BMP280;49099;28.428;-16.488;2022-11-15T03:48:54;98739.63;;;22.29
63009;BMP280;49099;28.428;-16.488;2022-11-15T03:51:23;98736.22;;;22.23
63009;BMP280;49099;28.428;-16.488;2022-11-15T03:53:51;98744.25;;;22.18
63009;BMP280;49099;28.428;-16.488;2022-11-15T03:56:18;98741.28;;;22.16
63009;BMP280;49099;28.428;-16.488;2022-11-15T03:58:45;98741.53;;;22.12
63009;BMP280;49099;28.428;-16.488;2022-11-15T04:01:12;98734.72;;;22.11
63009;BMP280;49099;28.428;-16.488;2022-11-15T04:03:40;98738.84;;;22.12
63009;BMP280;49099;28.428;-16.488;2022-11-15T04:06:07;98733.25;;;22.16
63009;BMP280;49099;28.428;-16.488;2022-11-15T04:08:34;98745.19;;;22.20
63009;BMP280;49099;28.428;-16.488;2022-11-15T04:11:01;98752.28;;;22.23
63009;BMP280;49099;28.428;-16.488;2022-11-15T04:13:28;98746.72;;;22.27
63009;BMP280;49099;28.428;-16.488;2022-11-15T04:15:56;98742.28;;;22.29
63009;BMP280;49099;28.428;-16.488;2022-11-15T04:18:23;98731.34;;;22.27
63009;BMP280;49099;28.428;-16.488;2022-11-15T04:20:50;98739.13;;;22.25
63009;BMP280;49099;28.428;-16.488;2022-11-15T04:23:36;98737.16;;;22.20
63009;BMP280;49099;28.428;-16.488;2022-11-15T04:26:22;98746.44;;;22.19
63009;BMP280;49099;28.428;-16.488;2022-11-15T04:28:49;98747.88;;;22.20
63009;BMP280;49099;28.428;-16.488;2022-11-15T04:31:35;98754.22;;;22.17
63009;BMP280;49099;28.428;-16.488;2022-11-15T04:34:03;98757.16;;;22.19
63009;BMP280;49099;28.428;-16.488;2022-11-15T04:36:30;98750.31;;;22.18
63009;BMP280;49099;28.428;-16.488;2022-11-15T04:39:16;98755.16;;;22.14
63009;BMP280;49099;28.428;-16.488;2022-11-15T04:41:44;98758.81;;;22.11
63009;BMP280;49099;28.428;-16.488;2022-11-15T04:44:11;98756.38;;;22.08
63009;BMP280;49099;28.428;-16.488;2022-11-15T04:46:38;98746.63;;;22.05
63009;BMP280;49099;28.428;-16.488;2022-11-15T04:49:05;98740.28;;;22.02
63009;BMP280;49099;28.428;-16.488;2022-11-15T04:51:32;98742.97;;;22.02
63009;BMP280;49099;28.428;-16.488;2022-11-15T04:53:59;98741.00;;;21.97
63009;BMP280;49099;28.428;-16.488;2022-11-15T04:56:26;98740.25;;;21.91
63009;BMP280;49099;28.428;-16.488;2022-11-15T04:58:53;98742.44;;;21.87
63009;BMP280;49099;28.428;-16.488;2022-11-15T05:01:20;98744.84;;;21.85
63009;BMP280;49099;28.428;-16.488;2022-11-15T05:03:47;98744.16;;;21.85
63009;BMP280;49099;28.428;-16.488;2022-11-15T05:06:33;98743.19;;;21.88
63009;BMP280;49099;28.428;-16.488;2022-11-15T05:09:00;98735.88;;;21.88
63009;BMP280;49099;28.428;-16.488;2022-11-15T05:11:27;98731.75;;;21.87
63009;BMP280;49099;28.428;-16.488;2022-11-15T05:13:54;98738.06;;;21.84
63009;BMP280;49099;28.428;-16.488;2022-11-15T05:16:22;98739.50;;;21.85
63009;BMP280;49099;28.428;-16.488;2022-11-15T05:18:53;98743.19;;;21.88
63009;BMP280;49099;28.428;-16.488;2022-11-15T05:21:21;98741.22;;;21.88
63009;BMP280;49099;28.428;-16.488;2022-11-15T05:23:48;98737.59;;;21.91
63009;BMP280;49099;28.428;-16.488;2022-11-15T05:26:17;98738.09;;;21.95
63009;BMP280;49099;28.428;-16.488;2022-11-15T05:28:45;98740.06;;;22.00
63009;BMP280;49099;28.428;-16.488;2022-11-15T05:31:14;98746.84;;;22.01
63009;BMP280;49099;28.428;-16.488;2022-11-15T05:33:43;98747.81;;;21.98
63009;BMP280;49099;28.428;-16.488;2022-11-15T05:36:33;98759.00;;;22.02
63009;BMP280;49099;28.428;-16.488;2022-11-15T05:39:01;98755.63;;;22.02
63009;BMP280;49099;28.428;-16.488;2022-11-15T05:41:35;98766.81;;;22.00
63009;BMP280;49099;28.428;-16.488;2022-11-15T05:44:05;98766.06;;;22.00
63009;BMP280;49099;28.428;-16.488;2022-11-15T05:46:34;98767.72;;;21.97
63009;BMP280;49099;28.428;-16.488;2022-11-15T05:49:02;98773.09;;;21.97
63009;BMP280;49099;28.428;-16.488;2022-11-15T05:51:31;98777.50;;;22.00
63009;BMP280;49099;28.428;-16.488;2022-11-15T05:53:58;98784.31;;;22.01
63009;BMP280;49099;28.428;-16.488;2022-11-15T05:56:25;98789.66;;;22.01
63009;BMP280;49099;28.428;-16.488;2022-11-15T05:58:53;98796.47;;;22.02
63009;BMP280;49099;28.428;-16.488;2022-11-15T06:01:25;98793.34;;;22.04
63009;BMP280;49099;28.428;-16.488;2022-11-15T06:03:53;98796.72;;;22.04
63009;BMP280;49099;28.428;-16.488;2022-11-15T06:06:20;98791.13;;;22.02
63009;BMP280;49099;28.428;-16.488;2022-11-15T06:08:47;98796.22;;;22.00
63009;BMP280;49099;28.428;-16.488;2022-11-15T06:11:14;98796.47;;;22.02
63009;BMP280;49099;28.428;-16.488;2022-11-15T06:13:49;98797.69;;;22.01
63009;BMP280;49099;28.428;-16.488;2022-11-15T06:16:26;98795.97;;;21.98
63009;BMP280;49099;28.428;-16.488;2022-11-15T06:18:53;98795.22;;;21.98
63009;BMP280;49099;28.428;-16.488;2022-11-15T06:21:20;98796.94;;;21.95
63009;BMP280;49099;28.428;-16.488;2022-11-15T06:23:47;98804.94;;;21.90
63009;BMP280;49099;28.428;-16.488;2022-11-15T06:26:14;98799.78;;;21.86
63009;BMP280;49099;28.428;-16.488;2022-11-15T06:28:41;98806.63;;;21.87
63009;BMP280;49099;28.428;-16.488;2022-11-15T06:31:09;98811.47;;;21.83
63009;BMP280;49099;28.428;-16.488;2022-11-15T06:33:39;98808.50;;;21.81
63009;BMP280;49099;28.428;-16.488;2022-11-15T06:36:08;98803.91;;;21.82
63009;BMP280;49099;28.428;-16.488;2022-11-15T06:38:46;98807.31;;;21.82
63009;BMP280;49099;28.428;-16.488;2022-11-15T06:41:13;98801.22;;;21.82
63009;BMP280;49099;28.428;-16.488;2022-11-15T06:43:41;98808.81;;;21.83
63009;BMP280;49099;28.428;-16.488;2022-11-15T06:46:08;98816.09;;;21.88
63009;BMP280;49099;28.428;-16.488;2022-11-15T06:48:35;98810.53;;;21.92
63009;BMP280;49099;28.428;-16.488;2022-11-15T06:51:04;98814.69;;;21.98
63009;BMP280;49099;28.428;-16.488;2022-11-15T06:53:31;98819.34;;;22.03
63009;BMP280;49099;28.428;-16.488;2022-11-15T06:56:01;98815.22;;;22.08
63009;BMP280;49099;28.428;-16.488;2022-11-15T06:58:28;98808.41;;;22.07
63009;BMP280;49099;28.428;-16.488;2022-11-15T07:01:04;98814.50;;;22.07
63009;BMP280;49099;28.428;-16.488;2022-11-15T07:03:35;98804.03;;;22.04
63009;BMP280;49099;28.428;-16.488;2022-11-15T07:06:03;98810.09;;;22.04
63009;BMP280;49099;28.428;-16.488;2022-11-15T07:08:34;98807.16;;;22.02
63009;BMP280;49099;28.428;-16.488;2022-11-15T07:11:03;98814.75;;;22.04
63009;BMP280;49099;28.428;-16.488;2022-11-15T07:13:31;98822.50;;;22.07
63009;BMP280;49099;28.428;-16.488;2022-11-15T07:16:07;98823.50;;;22.10
63009;BMP280;49099;28.428;-16.488;2022-11-15T07:18:38;98822.31;;;22.11
63009;BMP280;49099;28.428;-16.488;2022-11-15T07:21:08;98830.31;;;22.11
63009;BMP280;49099;28.428;-16.488;2022-11-15T07:23:37;98830.53;;;22.07
63009;BMP280;49099;28.428;-16.488;2022-11-15T07:26:05;98828.84;;;22.10
63009;BMP280;49099;28.428;-16.488;2022-11-15T07:28:32;98832.00;;;22.08
63009;BMP280;49099;28.428;-16.488;2022-11-15T07:31:07;98835.69;;;22.11
63009;BMP280;49099;28.428;-16.488;2022-11-15T07:33:35;98833.25;;;22.13
63009;BMP280;49099;28.428;-16.488;2022-11-15T07:36:04;98842.25;;;22.15
63009;BMP280;49099;28.428;-16.488;2022-11-15T07:38:33;98834.47;;;22.17
63009;BMP280;49099;28.428;-16.488;2022-11-15T07:41:08;98836.91;;;22.21
63009;BMP280;49099;28.428;-16.488;2022-11-15T07:43:35;98831.81;;;22.23
63009;BMP280;49099;28.428;-16.488;2022-11-15T07:46:07;98839.13;;;22.22
63009;BMP280;49099;28.428;-16.488;2022-11-15T07:48:39;98838.38;;;22.22
63009;BMP280;49099;28.428;-16.488;2022-11-15T07:51:15;98836.91;;;22.21
63009;BMP280;49099;28.428;-16.488;2022-11-15T07:53:43;98844.19;;;22.20
63009;BMP280;49099;28.428;-16.488;2022-11-15T07:56:11;98839.59;;;22.21
63009;BMP280;49099;28.428;-16.488;2022-11-15T07:58:39;98849.53;;;22.20
63009;BMP280;49099;28.428;-16.488;2022-11-15T08:01:07;98849.53;;;22.20
63009;BMP280;49099;28.428;-16.488;2022-11-15T08:03:36;98857.13;;;22.22
63009;BMP280;49099;28.428;-16.488;2022-11-15T08:06:04;98866.38;;;22.26
63009;BMP280;49099;28.428;-16.488;2022-11-15T08:08:31;98861.53;;;22.30
63009;BMP280;49099;28.428;-16.488;2022-11-15T08:10:58;98863.25;;;22.33
63009;BMP280;49099;28.428;-16.488;2022-11-15T08:13:26;98873.94;;;22.33
63009;BMP280;49099;28.428;-16.488;2022-11-15T08:16:01;98867.38;;;22.34
63009;BMP280;49099;28.428;-16.488;2022-11-15T08:18:28;98881.28;;;22.38
63009;BMP280;49099;28.428;-16.488;2022-11-15T08:20:59;98874.94;;;22.41
63009;BMP280;49099;28.428;-16.488;2022-11-15T08:23:26;98884.91;;;22.41
63009;BMP280;49099;28.428;-16.488;2022-11-15T08:26:00;98892.69;;;22.39
63009;BMP280;49099;28.428;-16.488;2022-11-15T08:28:28;98896.84;;;22.40
63009;BMP280;49099;28.428;-16.488;2022-11-15T08:30:55;98889.78;;;22.42
63009;BMP280;49099;28.428;-16.488;2022-11-15T08:33:22;98902.22;;;22.45
63009;BMP280;49099;28.428;-16.488;2022-11-15T08:35:50;98906.34;;;22.46
63009;BMP280;49099;28.428;-16.488;2022-11-15T08:38:17;98911.97;;;22.48
63009;BMP280;49099;28.428;-16.488;2022-11-15T08:40:44;98908.59;;;22.54
63009;BMP280;49099;28.428;-16.488;2022-11-15T08:43:11;98919.53;;;22.56
63009;BMP280;49099;28.428;-16.488;2022-11-15T08:45:38;98903.22;;;22.54
63009;BMP280;49099;28.428;-16.488;2022-11-15T08:48:05;98904.69;;;22.55
63009;BMP280;49099;28.428;-16.488;2022-11-15T08:50:32;98910.03;;;22.55
63009;BMP280;49099;28.428;-16.488;2022-11-15T08:53:09;98914.16;;;22.56
63009;BMP280;49099;28.428;-16.488;2022-11-15T08:55:37;98914.41;;;22.58
63009;BMP280;49099;28.428;-16.488;2022-11-15T08:58:04;98914.66;;;22.60
63009;BMP280;49099;28.428;-16.488;2022-11-15T09:00:32;98912.72;;;22.60
63009;BMP280;49099;28.428;-16.488;2022-11-15T09:03:03;98921.00;;;22.62
63009;BMP280;49099;28.428;-16.488;2022-11-15T09:05:31;98934.16;;;22.60
63009;BMP280;49099;28.428;-16.488;2022-11-15T09:07:58;98940.25;;;22.61
63009;BMP280;49099;28.428;-16.488;2022-11-15T09:10:27;98943.44;;;22.70
63009;BMP280;49099;28.428;-16.488;2022-11-15T09:12:56;98938.31;;;22.78
63009;BMP280;49099;28.428;-16.488;2022-11-15T09:15:23;98943.47;;;22.81
63009;BMP280;49099;28.428;-16.488;2022-11-15T09:17:51;98948.56;;;22.85
63009;BMP280;49099;28.428;-16.488;2022-11-15T09:20:18;98958.31;;;22.88
63009;BMP280;49099;28.428;-16.488;2022-11-15T09:22:45;98947.59;;;22.88
63009;BMP280;49099;28.428;-16.488;2022-11-15T09:25:12;98958.59;;;22.90
63009;BMP280;49099;28.428;-16.488;2022-11-15T09:27:39;98962.75;;;22.91
63009;BMP280;49099;28.428;-16.488;2022-11-15T09:30:06;98963.47;;;22.91
63009;BMP280;49099;28.428;-16.488;2022-11-15T09:32:34;98962.25;;;22.92
63009;BMP280;49099;28.428;-16.488;2022-11-15T09:35:05;98968.56;;;22.95
63009;BMP280;49099;28.428;-16.488;2022-11-15T09:37:32;98970.75;;;22.96
63009;BMP280;49099;28.428;-16.488;2022-11-15T09:39:59;98977.34;;;23.01
63009;BMP280;49099;28.428;-16.488;2022-11-15T09:45:26;98979.31;;;23.06
63009;BMP280;49099;28.428;-16.488;2022-11-15T09:50:43;98986.91;;;23.07
63009;BMP280;49099;28.428;-16.488;2022-11-15T09:53:41;98984.66;;;23.06
63009;BMP280;49099;28.428;-16.488;2022-11-15T09:56:45;98986.63;;;23.05
63009;BMP280;49099;28.428;-16.488;2022-11-15T10:04:51;98986.66;;;23.22
63009;BMP280;49099;28.428;-16.488;2022-11-15T10:10:12;98975.47;;;23.29
63009;BMP280;49099;28.428;-16.488;2022-11-15T10:12:36;98977.44;;;23.34
63009;BMP280;49099;28.428;-16.488;2022-11-15T10:15:09;98974.97;;;23.25
63009;BMP280;49099;28.428;-16.488;2022-11-15T10:22:56;98979.13;;;23.42
63009;BMP280;49099;28.428;-16.488;2022-11-15T10:25:28;98974.53;;;23.48
63009;BMP280;49099;28.428;-16.488;2022-11-15T10:28:16;98982.31;;;23.52
63009;BMP280;49099;28.428;-16.488;2022-11-15T10:30:46;98980.34;;;23.47
63009;BMP280;49099;28.428;-16.488;2022-11-15T10:33:37;98982.56;;;23.48
63009;BMP280;49099;28.428;-16.488;2022-11-15T10:39:04;98975.94;;;23.60
63009;BMP280;49099;28.428;-16.488;2022-11-15T10:41:35;98976.19;;;23.68
63009;BMP280;49099;28.428;-16.488;2022-11-15T10:49:31;98975.47;;;23.84
63009;BMP280;49099;28.428;-16.488;2022-11-15T10:54:46;98984.75;;;23.83
63009;BMP280;49099;28.428;-16.488;2022-11-15T10:57:15;98983.03;;;23.80
63009;BMP280;49099;28.428;-16.488;2022-11-15T10:59:53;98983.75;;;23.86
63009;BMP280;49099;28.428;-16.488;2022-11-15T11:02:40;98993.03;;;23.85
63009;BMP280;49099;28.428;-16.488;2022-11-15T11:05:36;99002.03;;;23.76
63009;BMP280;49099;28.428;-16.488;2022-11-15T11:10:38;98999.34;;;23.82
63009;BMP280;49099;28.428;-16.488;2022-11-15T11:13:35;98996.91;;;23.89
63009;BMP280;49099;28.428;-16.488;2022-11-15T11:24:30;98981.53;;;24.12
63009;BMP280;49099;28.428;-16.488;2022-11-15T11:32:56;98972.97;;;24.19
63009;BMP280;49099;28.428;-16.488;2022-11-15T11:35:41;98971.72;;;24.20
63009;BMP280;49099;28.428;-16.488;2022-11-15T11:57:38;98967.06;;;24.37
63009;BMP280;49099;28.428;-16.488;2022-11-15T12:00:20;98957.97;;;24.45
63009;BMP280;49099;28.428;-16.488;2022-11-15T12:05:59;98953.28;;;24.57
63009;BMP280;49099;28.428;-16.488;2022-11-15T12:11:16;98947.91;;;24.57
63009;BMP280;49099;28.428;-16.488;2022-11-15T12:13:48;98951.34;;;24.57
63009;BMP280;49099;28.428;-16.488;2022-11-15T12:16:26;98948.63;;;24.63
63009;BMP280;49099;28.428;-16.488;2022-11-15T12:18:59;98949.81;;;24.67
63009;BMP280;49099;28.428;-16.488;2022-11-15T12:24:01;98936.56;;;24.75
63009;BMP280;49099;28.428;-16.488;2022-11-15T12:26:52;98928.53;;;24.75
63009;BMP280;49099;28.428;-16.488;2022-11-15T12:29:42;98927.53;;;24.78
63009;BMP280;49099;28.428;-16.488;2022-11-15T12:32:23;98915.25;;;24.82
63009;BMP280;49099;28.428;-16.488;2022-11-15T12:34:51;98912.28;;;24.86
63009;BMP280;49099;28.428;-16.488;2022-11-15T12:40:18;98893.66;;;24.99
63009;BMP280;49099;28.428;-16.488;2022-11-15T12:45:41;98875.75;;;25.07
63009;BMP280;49099;28.428;-16.488;2022-11-15T12:58:51;98869.81;;;25.14
63009;BMP280;49099;28.428;-16.488;2022-11-15T13:04:25;98871.19;;;25.26
63009;BMP280;49099;28.428;-16.488;2022-11-15T13:07:04;98871.41;;;25.28
63009;BMP280;49099;28.428;-16.488;2022-11-15T13:12:00;98867.66;;;25.36
63009;BMP280;49099;28.428;-16.488;2022-11-15T13:17:26;98864.25;;;25.36
63009;BMP280;49099;28.428;-16.488;2022-11-15T13:30:40;98840.03;;;25.36
63009;BMP280;49099;28.428;-16.488;2022-11-15T13:33:13;98832.09;;;25.25
63009;BMP280;49099;28.428;-16.488;2022-11-15T13:35:45;98830.19;;;25.20
63009;BMP280;49099;28.428;-16.488;2022-11-15T13:38:31;98811.81;;;25.24
63009;BMP280;49099;28.428;-16.488;2022-11-15T13:41:13;98813.75;;;25.23
63009;BMP280;49099;28.428;-16.488;2022-11-15T13:43:41;98814.06;;;25.20
63009;BMP280;49099;28.428;-16.488;2022-11-15T13:46:19;98807.66;;;25.23
63009;BMP280;49099;28.428;-16.488;2022-11-15T13:48:52;98799.25;;;25.32
63009;BMP280;49099;28.428;-16.488;2022-11-15T13:51:27;98802.75;;;25.27
63009;BMP280;49099;28.428;-16.488;2022-11-15T13:56:33;98793.81;;;25.37
63009;BMP280;49099;28.428;-16.488;2022-11-15T13:59:09;98798.91;;;25.41
63009;BMP280;49099;28.428;-16.488;2022-11-15T14:01:36;98793.53;;;25.41
63009;BMP280;49099;28.428;-16.488;2022-11-15T14:04:03;98800.72;;;25.33
63009;BMP280;49099;28.428;-16.488;2022-11-15T14:06:31;98805.31;;;25.38
63009;BMP280;49099;28.428;-16.488;2022-11-15T14:11:49;98804.06;;;25.39
63009;BMP280;49099;28.428;-16.488;2022-11-15T14:14:20;98803.63;;;25.35
63009;BMP280;49099;28.428;-16.488;2022-11-15T14:16:50;98798.84;;;25.46
63009;BMP280;49099;28.428;-16.488;2022-11-15T14:22:11;98812.75;;;25.50
63009;BMP280;49099;28.428;-16.488;2022-11-15T14:24:38;98812.69;;;25.56
63009;BMP280;49099;28.428;-16.488;2022-11-15T14:27:26;98818.06;;;25.56
63009;BMP280;49099;28.428;-16.488;2022-11-15T14:29:54;98814.59;;;25.61
63009;BMP280;49099;28.428;-16.488;2022-11-15T14:34:57;98814.03;;;25.68
63009;BMP280;49099;28.428;-16.488;2022-11-15T14:37:27;98810.00;;;25.56
63009;BMP280;49099;28.428;-16.488;2022-11-15T14:39:54;98814.97;;;25.52
63009;BMP280;49099;28.428;-16.488;2022-11-15T14:42:22;98803.59;;;25.59
63009;BMP280;49099;28.428;-16.488;2022-11-15T14:44:50;98793.34;;;25.76
63009;BMP280;49099;28.428;-16.488;2022-11-15T14:47:18;98795.28;;;25.81
63009;BMP280;49099;28.428;-16.488;2022-11-15T14:49:45;98791.78;;;25.86
63009;BMP280;49099;28.428;-16.488;2022-11-15T14:52:27;98791.78;;;25.86
63009;BMP280;49099;28.428;-16.488;2022-11-15T14:54:59;98789.25;;;25.75
63009;BMP280;49099;28.428;-16.488;2022-11-15T14:57:29;98790.22;;;25.72
63009;BMP280;49099;28.428;-16.488;2022-11-15T14:59:56;98788.28;;;25.72
63009;BMP280;49099;28.428;-16.488;2022-11-15T15:02:25;98790.84;;;25.83
63009;BMP280;49099;28.428;-16.488;2022-11-15T15:04:53;98792.78;;;25.83
63009;BMP280;49099;28.428;-16.488;2022-11-15T15:07:21;98797.22;;;25.80
63009;BMP280;49099;28.428;-16.488;2022-11-15T15:09:48;98806.25;;;25.83
63009;BMP280;49099;28.428;-16.488;2022-11-15T15:12:20;98807.63;;;25.89
63009;BMP280;49099;28.428;-16.488;2022-11-15T15:14:49;98811.88;;;25.98
63009;BMP280;49099;28.428;-16.488;2022-11-15T15:17:16;98819.50;;;26.00
63009;BMP280;49099;28.428;-16.488;2022-11-15T15:19:44;98823.63;;;26.01
63009;BMP280;49099;28.428;-16.488;2022-11-15T15:22:16;98830.91;;;26.06
63009;BMP280;49099;28.428;-16.488;2022-11-15T15:24:45;98831.78;;;25.95
63009;BMP280;49099;28.428;-16.488;2022-11-15T15:27:12;98838.13;;;25.98
63009;BMP280;49099;28.428;-16.488;2022-11-15T15:29:40;98841.97;;;26.02
63009;BMP280;49099;28.428;-16.488;2022-11-15T15:32:08;98850.69;;;25.89
63009;BMP280;49099;28.428;-16.488;2022-11-15T15:34:35;98855.59;;;25.91
63009;BMP280;49099;28.428;-16.488;2022-11-15T15:37:22;98851.13;;;25.93
63009;BMP280;49099;28.428;-16.488;2022-11-15T15:39:55;98858.28;;;25.91
63009;BMP280;49099;28.428;-16.488;2022-11-15T15:42:23;98853.00;;;25.80
63009;BMP280;49099;28.428;-16.488;2022-11-15T15:44:50;98850.81;;;25.78
63009;BMP280;49099;28.428;-16.488;2022-11-15T15:47:20;98863.75;;;25.80
63009;BMP280;49099;28.428;-16.488;2022-11-15T15:49:50;98861.81;;;25.99
63009;BMP280;49099;28.428;-16.488;2022-11-15T15:52:17;98855.06;;;26.11
63009;BMP280;49099;28.428;-16.488;2022-11-15T15:54:44;98843.63;;;26.24
63009;BMP280;49099;28.428;-16.488;2022-11-15T15:57:13;98841.50;;;26.35
63009;BMP280;49099;28.428;-16.488;2022-11-15T15:59:40;98815.44;;;26.43
63009;BMP280;49099;28.428;-16.488;2022-11-15T16:02:14;98809.50;;;26.32
63009;BMP280;49099;28.428;-16.488;2022-11-15T16:04:41;98800.25;;;26.27
63009;BMP280;49099;28.428;-16.488;2022-11-15T16:07:16;98798.75;;;26.13
63009;BMP280;49099;28.428;-16.488;2022-11-15T16:09:44;98793.31;;;26.00
63009;BMP280;49099;28.428;-16.488;2022-11-15T16:12:32;98787.13;;;25.87
63009;BMP280;49099;28.428;-16.488;2022-11-15T16:15:00;98796.56;;;25.93
63009;BMP280;49099;28.428;-16.488;2022-11-15T16:17:38;98800.66;;;26.00
63009;BMP280;49099;28.428;-16.488;2022-11-15T16:20:06;98792.47;;;26.05
63009;BMP280;49099;28.428;-16.488;2022-11-15T16:22:33;98798.91;;;26.02
63009;BMP280;49099;28.428;-16.488;2022-11-15T16:25:00;98794.88;;;26.09
63009;BMP280;49099;28.428;-16.488;2022-11-15T16:27:28;98792.13;;;26.14
63009;BMP280;49099;28.428;-16.488;2022-11-15T16:29:55;98789.84;;;26.18
63009;BMP280;49099;28.428;-16.488;2022-11-15T16:32:22;98789.16;;;26.31